sensor_id;sensor_type;location;lat;lon;timestamp;pressure;altitude;pressure_sealevel;temperature;humidity
51321;BME280;38732;49.556;6.286;2022-12-07T00:01:39;99894.72;;;6.72;83.13
51321;BME280;38732;49.556;6.286;2022-12-07T00:04:12;99893.88;;;6.73;81.37
51321;BME280;38732;49.556;6.286;2022-12-07T00:06:42;99894.72;;;6.72;80.37
51321;BME280;38732;49.556;6.286;2022-12-07T00:09:15;99886.00;;;6.65;80.33
51321;BME280;38732;49.556;6.286;2022-12-07T00:11:48;99883.38;;;6.63;81.81
51321;BME280;38732;49.556;6.286;2022-12-07T00:14:18;99881.97;;;6.76;81.18
51321;BME280;38732;49.556;6.286;2022-12-07T00:16:49;99877.56;;;6.70;80.59
51321;BME280;38732;49.556;6.286;2022-12-07T00:19:17;99875.03;;;6.72;80.68
51321;BME280;38732;49.556;6.286;2022-12-07T00:21:46;99880.13;;;6.70;81.94
51321;BME280;38732;49.556;6.286;2022-12-07T00:24:14;99882.69;;;6.70;81.87
51321;BME280;38732;49.556;6.286;2022-12-07T00:26:42;99876.00;;;6.77;81.58
51321;BME280;38732;49.556;6.286;2022-12-07T00:29:18;99880.34;;;6.80;80.67
51321;BME280;38732;49.556;6.286;2022-12-07T00:31:47;99865.81;;;6.80;80.89
51321;BME280;38732;49.556;6.286;2022-12-07T00:34:18;99871.75;;;6.78;80.22
51321;BME280;38732;49.556;6.286;2022-12-07T00:36:47;99865.81;;;6.80;80.83
51321;BME280;38732;49.556;6.286;2022-12-07T00:39:16;99859.81;;;6.80;80.92
51321;BME280;38732;49.556;6.286;2022-12-07T00:41:45;99855.50;;;6.79;80.16
51321;BME280;38732;49.556;6.286;2022-12-07T00:44:13;99853.63;;;6.70;81.33
51321;BME280;38732;49.556;6.286;2022-12-07T00:46:41;99847.75;;;6.76;81.42
51321;BME280;38732;49.556;6.286;2022-12-07T00:49:09;99851.97;;;6.74;81.04
51321;BME280;38732;49.556;6.286;2022-12-07T00:51:38;99845.88;;;6.68;81.19
51321;BME280;38732;49.556;6.286;2022-12-07T00:54:06;99844.25;;;6.72;82.17
51321;BME280;38732;49.556;6.286;2022-12-07T00:56:34;99843.50;;;6.78;81.71
51321;BME280;38732;49.556;6.286;2022-12-07T00:59:03;99849.50;;;6.78;80.89
51321;BME280;38732;49.556;6.286;2022-12-07T01:01:34;99844.31;;;6.75;81.61
51321;BME280;38732;49.556;6.286;2022-12-07T01:04:02;99839.28;;;6.80;81.19
51321;BME280;38732;49.556;6.286;2022-12-07T01:06:31;99834.97;;;6.79;81.06
51321;BME280;38732;49.556;6.286;2022-12-07T01:09:00;99829.81;;;6.77;80.82
51321;BME280;38732;49.556;6.286;2022-12-07T01:11:30;99829.94;;;6.83;81.52
51321;BME280;38732;49.556;6.286;2022-12-07T01:13:59;99826.44;;;6.80;81.37
51321;BME280;38732;49.556;6.286;2022-12-07T01:16:29;99829.81;;;6.77;81.38
51321;BME280;38732;49.556;6.286;2022-12-07T01:18:59;99833.16;;;6.73;80.87
51321;BME280;38732;49.556;6.286;2022-12-07T01:21:30;99832.38;;;6.77;81.65
51321;BME280;38732;49.556;6.286;2022-12-07T01:23:59;99832.41;;;6.79;81.83
51321;BME280;38732;49.556;6.286;2022-12-07T01:26:27;99837.56;;;6.80;83.56
51321;BME280;38732;49.556;6.286;2022-12-07T01:28:55;99842.75;;;6.82;83.90
51321;BME280;38732;49.556;6.286;2022-12-07T01:31:25;99836.78;;;6.83;83.30
51321;BME280;38732;49.556;6.286;2022-12-07T01:33:56;99835.94;;;6.84;82.36
51321;BME280;38732;49.556;6.286;2022-12-07T01:36:27;99840.19;;;6.82;82.56
51321;BME280;38732;49.556;6.286;2022-12-07T01:38:58;99836.72;;;6.81;82.41
51321;BME280;38732;49.556;6.286;2022-12-07T01:41:30;99842.66;;;6.79;83.18
51321;BME280;38732;49.556;6.286;2022-12-07T01:44:23;99844.56;;;6.87;82.02
51321;BME280;38732;49.556;6.286;2022-12-07T01:49:30;99851.31;;;6.84;82.15
51321;BME280;38732;49.556;6.286;2022-12-07T01:52:17;99851.44;;;6.88;82.73
51321;BME280;38732;49.556;6.286;2022-12-07T01:54:49;99845.56;;;6.94;81.56
51321;BME280;38732;49.556;6.286;2022-12-07T01:57:19;99839.56;;;6.94;81.73
51321;BME280;38732;49.556;6.286;2022-12-07T01:59:51;99833.56;;;6.93;82.10
51321;BME280;38732;49.556;6.286;2022-12-07T02:02:23;99829.28;;;6.94;81.70
51321;BME280;38732;49.556;6.286;2022-12-07T02:04:55;99829.22;;;6.90;82.60
51321;BME280;38732;49.556;6.286;2022-12-07T02:07:26;99828.31;;;6.88;82.31
51321;BME280;38732;49.556;6.286;2022-12-07T02:09:55;99828.41;;;6.91;82.82
51321;BME280;38732;49.556;6.286;2022-12-07T02:12:24;99824.97;;;6.91;82.89
51321;BME280;38732;49.556;6.286;2022-12-07T02:14:53;99827.63;;;6.96;83.53
51321;BME280;38732;49.556;6.286;2022-12-07T02:17:37;99819.03;;;6.94;83.11
51321;BME280;38732;49.556;6.286;2022-12-07T02:23:15;99811.41;;;6.98;83.66
51321;BME280;38732;49.556;6.286;2022-12-07T02:31:30;99798.06;;;7.15;84.43
51321;BME280;38732;49.556;6.286;2022-12-07T02:34:09;99797.19;;;7.16;82.03
51321;BME280;38732;49.556;6.286;2022-12-07T02:36:43;99811.97;;;6.83;85.88
51321;BME280;38732;49.556;6.286;2022-12-07T02:39:28;99803.25;;;7.18;81.80
51321;BME280;38732;49.556;6.286;2022-12-07T02:42:03;99804.91;;;7.16;80.43
51321;BME280;38732;49.556;6.286;2022-12-07T02:44:36;99801.34;;;7.07;81.52
51321;BME280;38732;49.556;6.286;2022-12-07T02:47:07;99810.84;;;7.13;81.57
51321;BME280;38732;49.556;6.286;2022-12-07T02:49:38;99815.91;;;7.08;81.17
51321;BME280;38732;49.556;6.286;2022-12-07T02:52:07;99813.41;;;7.13;82.06
51321;BME280;38732;49.556;6.286;2022-12-07T02:54:35;99814.16;;;7.07;82.44
51321;BME280;38732;49.556;6.286;2022-12-07T02:57:25;99808.94;;;7.03;81.16
51321;BME280;38732;49.556;6.286;2022-12-07T03:00:06;99812.28;;;6.99;81.46
51321;BME280;38732;49.556;6.286;2022-12-07T03:02:48;99810.44;;;6.91;82.51
51321;BME280;38732;49.556;6.286;2022-12-07T03:05:31;99815.59;;;6.91;81.57
51321;BME280;38732;49.556;6.286;2022-12-07T03:08:19;99805.19;;;6.85;82.52
51321;BME280;38732;49.556;6.286;2022-12-07T03:10:59;99804.38;;;6.88;82.12
51321;BME280;38732;49.556;6.286;2022-12-07T03:16:16;99792.25;;;6.81;81.94
51321;BME280;38732;49.556;6.286;2022-12-07T03:18:53;99793.91;;;6.77;82.38
51321;BME280;38732;49.556;6.286;2022-12-07T03:21:28;99793.16;;;6.83;82.33
51321;BME280;38732;49.556;6.286;2022-12-07T03:24:05;99794.03;;;6.85;82.83
51321;BME280;38732;49.556;6.286;2022-12-07T03:26:39;99791.53;;;6.86;82.57
51321;BME280;38732;49.556;6.286;2022-12-07T03:29:15;99796.56;;;6.82;82.63
51321;BME280;38732;49.556;6.286;2022-12-07T03:31:48;99795.66;;;6.81;83.52
51321;BME280;38732;49.556;6.286;2022-12-07T03:34:32;99788.00;;;6.83;82.85
51321;BME280;38732;49.556;6.286;2022-12-07T03:37:08;99795.75;;;6.86;83.52
51321;BME280;38732;49.556;6.286;2022-12-07T03:39:49;99790.72;;;6.89;84.04
51321;BME280;38732;49.556;6.286;2022-12-07T03:42:22;99789.97;;;6.96;82.42
51321;BME280;38732;49.556;6.286;2022-12-07T03:44:51;99798.56;;;6.97;83.13
51321;BME280;38732;49.556;6.286;2022-12-07T03:47:30;99787.44;;;6.98;82.39
51321;BME280;38732;49.556;6.286;2022-12-07T03:52:46;99790.81;;;6.95;82.81
51321;BME280;38732;49.556;6.286;2022-12-07T03:55:27;99789.88;;;6.90;83.28
51321;BME280;38732;49.556;6.286;2022-12-07T03:58:03;99794.28;;;6.97;82.36
51321;BME280;38732;49.556;6.286;2022-12-07T04:00:33;99790.91;;;7.00;82.87
51321;BME280;38732;49.556;6.286;2022-12-07T04:03:02;99788.31;;;6.97;83.40
51321;BME280;38732;49.556;6.286;2022-12-07T04:05:30;99789.25;;;7.03;83.14
51321;BME280;38732;49.556;6.286;2022-12-07T04:07:58;99783.41;;;7.09;84.84
51321;BME280;38732;49.556;6.286;2022-12-07T04:10:26;99783.31;;;7.06;83.35
51321;BME280;38732;49.556;6.286;2022-12-07T04:12:55;99791.22;;;7.15;83.06
51321;BME280;38732;49.556;6.286;2022-12-07T04:15:24;99780.03;;;7.13;82.97
51321;BME280;38732;49.556;6.286;2022-12-07T04:17:52;99769.72;;;7.10;82.69
51321;BME280;38732;49.556;6.286;2022-12-07T04:20:20;99769.75;;;7.11;82.78
51321;BME280;38732;49.556;6.286;2022-12-07T04:22:48;99770.50;;;7.06;82.96
51321;BME280;38732;49.556;6.286;2022-12-07T04:25:17;99764.59;;;7.10;83.95
51321;BME280;38732;49.556;6.286;2022-12-07T04:27:45;99769.84;;;7.18;83.21
51321;BME280;38732;49.556;6.286;2022-12-07T04:30:13;99762.88;;;7.10;83.69
51321;BME280;38732;49.556;6.286;2022-12-07T04:32:41;99769.00;;;7.19;82.33
51321;BME280;38732;49.556;6.286;2022-12-07T04:35:10;99768.34;;;6.82;82.87
51321;BME280;38732;49.556;6.286;2022-12-07T04:37:38;99771.97;;;6.93;86.57
51321;BME280;38732;49.556;6.286;2022-12-07T04:40:08;99771.66;;;7.22;83.79
51321;BME280;38732;49.556;6.286;2022-12-07T04:42:37;99771.75;;;7.26;82.16
51321;BME280;38732;49.556;6.286;2022-12-07T04:45:06;99773.56;;;7.32;82.47
51321;BME280;38732;49.556;6.286;2022-12-07T04:47:34;99765.91;;;7.35;82.17
51321;BME280;38732;49.556;6.286;2022-12-07T04:50:03;99767.63;;;7.36;81.48
51321;BME280;38732;49.556;6.286;2022-12-07T04:52:31;99765.13;;;7.41;80.89
51321;BME280;38732;49.556;6.286;2022-12-07T04:54:59;99760.84;;;7.40;80.49
51321;BME280;38732;49.556;6.286;2022-12-07T04:57:27;99760.03;;;7.44;80.22
51321;BME280;38732;49.556;6.286;2022-12-07T04:59:56;99766.91;;;6.98;84.13
51321;BME280;38732;49.556;6.286;2022-12-07T05:02:24;99759.00;;;7.32;81.90
51321;BME280;38732;49.556;6.286;2022-12-07T05:04:52;99758.81;;;7.22;83.21
51321;BME280;38732;49.556;6.286;2022-12-07T05:07:20;99758.31;;;7.43;81.74
51321;BME280;38732;49.556;6.286;2022-12-07T05:09:48;99766.34;;;7.12;84.89
51321;BME280;38732;49.556;6.286;2022-12-07T05:12:17;99764.22;;;7.39;83.20
51321;BME280;38732;49.556;6.286;2022-12-07T05:14:45;99760.22;;;7.53;81.93
51321;BME280;38732;49.556;6.286;2022-12-07T05:17:13;99755.09;;;7.56;82.16
51321;BME280;38732;49.556;6.286;2022-12-07T05:19:41;99761.97;;;7.55;82.02
51321;BME280;38732;49.556;6.286;2022-12-07T05:22:09;99761.19;;;7.60;82.42
51321;BME280;38732;49.556;6.286;2022-12-07T05:24:38;99757.81;;;7.62;82.93
51321;BME280;38732;49.556;6.286;2022-12-07T05:27:06;99756.91;;;7.60;80.77
51321;BME280;38732;49.556;6.286;2022-12-07T05:29:34;99749.31;;;7.68;80.00
51321;BME280;38732;49.556;6.286;2022-12-07T05:32:02;99749.31;;;7.66;80.09
51321;BME280;38732;49.556;6.286;2022-12-07T05:34:30;99756.13;;;7.66;81.75
51321;BME280;38732;49.556;6.286;2022-12-07T05:36:59;99757.03;;;7.66;80.76
51321;BME280;38732;49.556;6.286;2022-12-07T05:39:27;99754.44;;;7.66;80.31
51321;BME280;38732;49.556;6.286;2022-12-07T05:41:55;99750.09;;;7.64;80.56
51321;BME280;38732;49.556;6.286;2022-12-07T05:44:23;99754.47;;;7.68;79.79
51321;BME280;38732;49.556;6.286;2022-12-07T05:46:51;99745.94;;;7.69;79.47
51321;BME280;38732;49.556;6.286;2022-12-07T05:49:20;99744.22;;;7.71;80.26
51321;BME280;38732;49.556;6.286;2022-12-07T05:51:48;99753.69;;;7.72;80.86
51321;BME280;38732;49.556;6.286;2022-12-07T05:54:16;99750.22;;;7.70;81.07
51321;BME280;38732;49.556;6.286;2022-12-07T05:56:44;99756.38;;;7.80;80.55
51321;BME280;38732;49.556;6.286;2022-12-07T05:59:13;99762.28;;;7.74;80.97
51321;BME280;38732;49.556;6.286;2022-12-07T06:01:41;99757.16;;;7.75;80.12
51321;BME280;38732;49.556;6.286;2022-12-07T06:04:09;99759.75;;;7.78;80.12
51321;BME280;38732;49.556;6.286;2022-12-07T06:06:37;99754.63;;;7.77;79.54
51321;BME280;38732;49.556;6.286;2022-12-07T06:09:06;99763.22;;;7.81;79.86
51321;BME280;38732;49.556;6.286;2022-12-07T06:11:34;99755.50;;;7.81;80.31
51321;BME280;38732;49.556;6.286;2022-12-07T06:14:02;99759.91;;;7.86;79.97
51321;BME280;38732;49.556;6.286;2022-12-07T06:16:30;99765.84;;;7.82;79.59
51321;BME280;38732;49.556;6.286;2022-12-07T06:18:59;99761.56;;;7.83;79.98
51321;BME280;38732;49.556;6.286;2022-12-07T06:21:27;99755.56;;;7.82;80.49
51321;BME280;38732;49.556;6.286;2022-12-07T06:23:55;99752.94;;;7.81;80.09
51321;BME280;38732;49.556;6.286;2022-12-07T06:26:23;99748.69;;;7.83;80.57
51321;BME280;38732;49.556;6.286;2022-12-07T06:28:52;99757.34;;;7.34;85.03
51321;BME280;38732;49.556;6.286;2022-12-07T06:31:20;99746.88;;;7.75;83.23
51321;BME280;38732;49.556;6.286;2022-12-07T06:33:48;99759.25;;;7.46;84.12
51321;BME280;38732;49.556;6.286;2022-12-07T06:36:16;99754.47;;;7.68;83.76
51321;BME280;38732;49.556;6.286;2022-12-07T06:38:45;99759.00;;;7.32;85.51
51321;BME280;38732;49.556;6.286;2022-12-07T06:41:13;99757.56;;;7.00;87.76
51321;BME280;38732;49.556;6.286;2022-12-07T06:43:41;99759.75;;;7.27;86.80
51321;BME280;38732;49.556;6.286;2022-12-07T06:46:09;99754.50;;;7.69;83.93
51321;BME280;38732;49.556;6.286;2022-12-07T06:48:37;99752.75;;;7.67;84.05
51321;BME280;38732;49.556;6.286;2022-12-07T06:51:06;99754.53;;;7.72;83.49
51321;BME280;38732;49.556;6.286;2022-12-07T06:53:35;99756.28;;;7.75;84.04
51321;BME280;38732;49.556;6.286;2022-12-07T06:56:04;99749.56;;;7.82;82.98
51321;BME280;38732;49.556;6.286;2022-12-07T06:58:32;99757.84;;;7.65;83.70
51321;BME280;38732;49.556;6.286;2022-12-07T07:01:00;99753.69;;;7.73;84.18
51321;BME280;38732;49.556;6.286;2022-12-07T07:03:29;99759.63;;;7.19;87.98
51321;BME280;38732;49.556;6.286;2022-12-07T07:05:57;99750.22;;;7.70;84.23
51321;BME280;38732;49.556;6.286;2022-12-07T07:08:25;99750.00;;;7.57;84.94
51321;BME280;38732;49.556;6.286;2022-12-07T07:10:53;99750.22;;;7.70;83.57
51321;BME280;38732;49.556;6.286;2022-12-07T07:13:21;99754.00;;;7.40;85.79
51321;BME280;38732;49.556;6.286;2022-12-07T07:15:50;99760.44;;;7.67;83.79
51321;BME280;38732;49.556;6.286;2022-12-07T07:18:18;99761.97;;;7.55;85.15
51321;BME280;38732;49.556;6.286;2022-12-07T07:20:46;99761.69;;;7.40;86.17
51321;BME280;38732;49.556;6.286;2022-12-07T07:23:14;99759.75;;;6.81;92.59
51321;BME280;38732;49.556;6.286;2022-12-07T07:25:42;99765.13;;;6.94;89.30
51321;BME280;38732;49.556;6.286;2022-12-07T07:28:11;99768.50;;;7.38;87.56
51321;BME280;38732;49.556;6.286;2022-12-07T07:30:39;99767.19;;;7.13;89.25
51321;BME280;38732;49.556;6.286;2022-12-07T07:33:09;99777.59;;;6.34;94.05
51321;BME280;38732;49.556;6.286;2022-12-07T07:35:38;99779.75;;;6.98;90.66
51321;BME280;38732;49.556;6.286;2022-12-07T07:38:06;99782.56;;;6.26;96.96
51321;BME280;38732;49.556;6.286;2022-12-07T07:40:35;99787.97;;;7.25;89.10
51321;BME280;38732;49.556;6.286;2022-12-07T07:43:03;99791.41;;;6.41;97.60
51321;BME280;38732;49.556;6.286;2022-12-07T07:45:31;99783.91;;;7.37;88.59
51321;BME280;38732;49.556;6.286;2022-12-07T07:47:59;99785.53;;;7.31;88.28
51321;BME280;38732;49.556;6.286;2022-12-07T07:50:27;99788.34;;;7.45;87.09
51321;BME280;38732;49.556;6.286;2022-12-07T07:52:57;99789.63;;;7.70;85.02
51321;BME280;38732;49.556;6.286;2022-12-07T07:55:25;99783.50;;;7.64;85.55
51321;BME280;38732;49.556;6.286;2022-12-07T07:57:53;99793.66;;;7.54;85.40
51321;BME280;38732;49.556;6.286;2022-12-07T08:00:22;99790.69;;;7.82;84.36
51321;BME280;38732;49.556;6.286;2022-12-07T08:02:50;99803.50;;;7.80;85.60
51321;BME280;38732;49.556;6.286;2022-12-07T08:05:18;99801.81;;;7.84;84.08
51321;BME280;38732;49.556;6.286;2022-12-07T08:07:46;99803.41;;;7.75;84.86
51321;BME280;38732;49.556;6.286;2022-12-07T08:10:15;99795.16;;;7.95;83.77
51321;BME280;38732;49.556;6.286;2022-12-07T08:12:43;99797.84;;;8.03;82.96
51321;BME280;38732;49.556;6.286;2022-12-07T08:15:11;99803.03;;;8.04;82.82
51321;BME280;38732;49.556;6.286;2022-12-07T08:17:39;99803.97;;;8.11;82.63
51321;BME280;38732;49.556;6.286;2022-12-07T08:20:08;99807.44;;;8.11;82.40
51321;BME280;38732;49.556;6.286;2022-12-07T08:22:36;99816.03;;;8.15;81.68
51321;BME280;38732;49.556;6.286;2022-12-07T08:25:04;99813.47;;;8.15;80.87
51321;BME280;38732;49.556;6.286;2022-12-07T08:27:32;99813.25;;;8.01;81.78
51321;BME280;38732;49.556;6.286;2022-12-07T08:30:00;99818.59;;;8.13;79.29
51321;BME280;38732;49.556;6.286;2022-12-07T08:32:29;99810.97;;;8.21;78.25
51321;BME280;38732;49.556;6.286;2022-12-07T08:34:57;99811.88;;;8.23;78.60
51321;BME280;38732;49.556;6.286;2022-12-07T08:37:25;99815.44;;;8.33;79.82
51321;BME280;38732;49.556;6.286;2022-12-07T08:39:53;99811.13;;;8.30;78.06
51321;BME280;38732;49.556;6.286;2022-12-07T08:42:21;99814.63;;;8.34;76.38
51321;BME280;38732;49.556;6.286;2022-12-07T08:44:50;99816.38;;;8.38;76.66
51321;BME280;38732;49.556;6.286;2022-12-07T08:47:18;99813.09;;;8.45;79.20
51321;BME280;38732;49.556;6.286;2022-12-07T08:49:49;99820.06;;;8.52;77.77
51321;BME280;38732;49.556;6.286;2022-12-07T08:52:19;99811.41;;;8.47;76.27
51321;BME280;38732;49.556;6.286;2022-12-07T08:54:48;99814.81;;;8.45;78.47
51321;BME280;38732;49.556;6.286;2022-12-07T08:57:16;99814.88;;;8.51;77.51
51321;BME280;38732;49.556;6.286;2022-12-07T08:59:45;99814.81;;;8.45;77.60
51321;BME280;38732;49.556;6.286;2022-12-07T09:02:13;99815.88;;;8.59;76.05
51321;BME280;38732;49.556;6.286;2022-12-07T09:04:41;99822.63;;;8.52;77.73
51321;BME280;38732;49.556;6.286;2022-12-07T09:07:09;99819.16;;;8.49;78.61
51321;BME280;38732;49.556;6.286;2022-12-07T09:09:38;99811.44;;;8.50;79.05
51321;BME280;38732;49.556;6.286;2022-12-07T09:12:06;99822.53;;;8.46;80.00
51321;BME280;38732;49.556;6.286;2022-12-07T09:14:34;99822.50;;;8.43;80.21
51321;BME280;38732;49.556;6.286;2022-12-07T09:17:11;99819.13;;;8.47;79.68
51321;BME280;38732;49.556;6.286;2022-12-07T09:19:39;99828.56;;;8.47;79.77
51321;BME280;38732;49.556;6.286;2022-12-07T09:22:08;99820.00;;;8.48;79.58
51321;BME280;38732;49.556;6.286;2022-12-07T09:24:36;99813.19;;;8.51;79.22
51321;BME280;38732;49.556;6.286;2022-12-07T09:27:05;99821.78;;;8.53;80.49
51321;BME280;38732;49.556;6.286;2022-12-07T09:29:33;99820.94;;;8.54;80.83
51321;BME280;38732;49.556;6.286;2022-12-07T09:32:01;99819.19;;;8.52;80.12
51321;BME280;38732;49.556;6.286;2022-12-07T09:34:31;99813.22;;;8.54;81.00
51321;BME280;38732;49.556;6.286;2022-12-07T09:37:00;99812.47;;;8.61;79.80
51321;BME280;38732;49.556;6.286;2022-12-07T09:39:29;99808.25;;;8.67;79.96
51321;BME280;38732;49.556;6.286;2022-12-07T09:41:57;99805.72;;;8.70;78.98
51321;BME280;38732;49.556;6.286;2022-12-07T09:44:26;99805.69;;;8.67;78.11
51321;BME280;38732;49.556;6.286;2022-12-07T09:46:55;99805.75;;;8.73;78.50
51321;BME280;38732;49.556;6.286;2022-12-07T09:49:25;99795.53;;;8.80;77.69
51321;BME280;38732;49.556;6.286;2022-12-07T09:54:35;99795.56;;;8.82;77.05
51321;BME280;38732;49.556;6.286;2022-12-07T09:57:04;99791.25;;;8.81;76.58
51321;BME280;38732;49.556;6.286;2022-12-07T09:59:32;99796.31;;;8.75;76.41
51321;BME280;38732;49.556;6.286;2022-12-07T10:02:25;99787.66;;;8.67;77.86
51321;BME280;38732;49.556;6.286;2022-12-07T10:04:57;99786.75;;;8.64;77.08
51321;BME280;38732;49.556;6.286;2022-12-07T10:07:25;99787.59;;;8.62;77.16
51321;BME280;38732;49.556;6.286;2022-12-07T10:09:54;99778.94;;;8.57;78.39
51321;BME280;38732;49.556;6.286;2022-12-07T10:12:22;99781.50;;;8.55;78.83
51321;BME280;38732;49.556;6.286;2022-12-07T10:15:02;99781.56;;;8.60;77.53
51321;BME280;38732;49.556;6.286;2022-12-07T10:17:40;99784.19;;;8.64;77.52
51321;BME280;38732;49.556;6.286;2022-12-07T10:20:26;99775.72;;;8.75;76.45
51321;BME280;38732;49.556;6.286;2022-12-07T10:23:02;99769.03;;;8.91;74.65
51321;BME280;38732;49.556;6.286;2022-12-07T10:25:35;99760.78;;;9.21;74.02
51321;BME280;38732;49.556;6.286;2022-12-07T10:30:48;99757.72;;;9.59;69.33
51321;BME280;38732;49.556;6.286;2022-12-07T10:36:36;99751.78;;;9.70;66.91
51321;BME280;38732;49.556;6.286;2022-12-07T10:39:19;99750.16;;;9.80;66.17
51321;BME280;38732;49.556;6.286;2022-12-07T10:42:03;99745.91;;;9.84;70.18
51321;BME280;38732;49.556;6.286;2022-12-07T10:44:33;99746.63;;;9.67;68.36
51321;BME280;38732;49.556;6.286;2022-12-07T10:58:57;99751.84;;;8.87;72.63
51321;BME280;38732;49.556;6.286;2022-12-07T11:07:38;99736.97;;;8.62;73.31
51321;BME280;38732;49.556;6.286;2022-12-07T11:10:22;99725.78;;;9.43;70.76
51321;BME280;38732;49.556;6.286;2022-12-07T11:21:00;99724.38;;;8.20;74.83
51321;BME280;38732;49.556;6.286;2022-12-07T11:26:19;99721.19;;;7.25;82.00
51321;BME280;38732;49.556;6.286;2022-12-07T11:28:57;99718.75;;;8.44;74.47
51321;BME280;38732;49.556;6.286;2022-12-07T11:34:38;99705.09;;;7.89;76.88
51321;BME280;38732;49.556;6.286;2022-12-07T11:37:17;99700.41;;;7.63;79.36
51321;BME280;38732;49.556;6.286;2022-12-07T11:42:40;99697.16;;;8.37;76.31
51321;BME280;38732;49.556;6.286;2022-12-07T11:45:26;99688.16;;;8.69;73.88
51321;BME280;38732;49.556;6.286;2022-12-07T11:50:43;99693.53;;;7.61;79.50
51321;BME280;38732;49.556;6.286;2022-12-07T11:55:52;99675.13;;;9.48;69.98
51321;BME280;38732;49.556;6.286;2022-12-07T12:06:43;99669.59;;;10.21;67.24
51321;BME280;38732;49.556;6.286;2022-12-07T12:09:25;99673.00;;;10.20;65.66
51321;BME280;38732;49.556;6.286;2022-12-07T12:20:26;99666.13;;;10.21;64.81
51321;BME280;38732;49.556;6.286;2022-12-07T12:23:06;99670.41;;;10.15;64.27
51321;BME280;38732;49.556;6.286;2022-12-07T12:25:46;99664.38;;;10.12;66.56
51321;BME280;38732;49.556;6.286;2022-12-07T12:28:24;99663.50;;;10.10;64.61
51321;BME280;38732;49.556;6.286;2022-12-07T12:31:13;99665.25;;;10.14;63.06
51321;BME280;38732;49.556;6.286;2022-12-07T12:33:50;99671.25;;;10.11;64.06
51321;BME280;38732;49.556;6.286;2022-12-07T12:36:24;99662.59;;;10.02;65.78
51321;BME280;38732;49.556;6.286;2022-12-07T12:46:58;99650.63;;;10.14;64.75
51321;BME280;38732;49.556;6.286;2022-12-07T12:57:37;99639.44;;;10.06;63.86
51321;BME280;38732;49.556;6.286;2022-12-07T13:00:20;99635.88;;;9.87;64.38
51321;BME280;38732;49.556;6.286;2022-12-07T13:02:53;99640.19;;;9.90;66.02
51321;BME280;38732;49.556;6.286;2022-12-07T13:05:29;99637.56;;;9.79;66.30
51321;BME280;38732;49.556;6.286;2022-12-07T13:08:03;99639.97;;;9.52;66.61
51321;BME280;38732;49.556;6.286;2022-12-07T13:10:44;99635.16;;;8.16;73.76
51321;BME280;38732;49.556;6.286;2022-12-07T13:15:42;99632.13;;;9.36;70.37
51321;BME280;38732;49.556;6.286;2022-12-07T13:20:55;99630.66;;;8.70;74.73
51321;BME280;38732;49.556;6.286;2022-12-07T13:24:10;99629.09;;;8.09;77.12
51321;BME280;38732;49.556;6.286;2022-12-07T13:26:21;99616.84;;;8.60;74.11
51321;BME280;38732;49.556;6.286;2022-12-07T13:29:04;99620.59;;;8.96;72.79
51321;BME280;38732;49.556;6.286;2022-12-07T13:36:55;99614.81;;;7.67;77.88
51321;BME280;38732;49.556;6.286;2022-12-07T13:39:25;99608.81;;;8.34;77.93
51321;BME280;38732;49.556;6.286;2022-12-07T13:41:58;99611.31;;;9.13;72.91
51321;BME280;38732;49.556;6.286;2022-12-07T13:44:27;99600.91;;;8.17;77.64
51321;BME280;38732;49.556;6.286;2022-12-07T13:47:16;99604.34;;;6.99;85.60
51321;BME280;38732;49.556;6.286;2022-12-07T13:49:53;99605.50;;;7.74;82.47
51321;BME280;38732;49.556;6.286;2022-12-07T13:52:24;99601.03;;;7.06;87.54
51321;BME280;38732;49.556;6.286;2022-12-07T13:54:59;99598.97;;;6.83;88.81
51321;BME280;38732;49.556;6.286;2022-12-07T13:57:30;99597.25;;;8.01;83.23
51321;BME280;38732;49.556;6.286;2022-12-07T13:59:59;99594.47;;;7.22;84.20
51321;BME280;38732;49.556;6.286;2022-12-07T14:02:33;99596.25;;;7.27;86.42
51321;BME280;38732;49.556;6.286;2022-12-07T14:05:13;99594.41;;;7.76;85.85
51321;BME280;38732;49.556;6.286;2022-12-07T14:07:54;99587.53;;;7.77;82.92
51321;BME280;38732;49.556;6.286;2022-12-07T14:12:56;99591.06;;;7.85;83.29
51321;BME280;38732;49.556;6.286;2022-12-07T14:15:28;99591.59;;;8.28;81.29
51321;BME280;38732;49.556;6.286;2022-12-07T14:17:58;99587.63;;;7.82;82.10
51321;BME280;38732;49.556;6.286;2022-12-07T14:20:30;99582.22;;;8.32;80.20
51321;BME280;38732;49.556;6.286;2022-12-07T14:22:58;99583.03;;;8.29;79.19
51321;BME280;38732;49.556;6.286;2022-12-07T14:25:27;99577.31;;;8.52;78.58
51321;BME280;38732;49.556;6.286;2022-12-07T14:27:57;99569.81;;;8.78;76.57
51321;BME280;38732;49.556;6.286;2022-12-07T14:30:29;99565.56;;;7.99;79.98
51321;BME280;38732;49.556;6.286;2022-12-07T14:33:00;99569.88;;;8.03;79.48
51321;BME280;38732;49.556;6.286;2022-12-07T14:35:29;99571.56;;;8.80;76.57
51321;BME280;38732;49.556;6.286;2022-12-07T14:37:58;99572.72;;;9.19;74.96
51321;BME280;38732;49.556;6.286;2022-12-07T14:40:28;99570.22;;;9.28;74.20
51321;BME280;38732;49.556;6.286;2022-12-07T14:43:05;99566.81;;;9.33;74.05
51321;BME280;38732;49.556;6.286;2022-12-07T14:45:34;99563.34;;;9.31;74.20
51321;BME280;38732;49.556;6.286;2022-12-07T14:48:02;99571.88;;;9.22;73.20
51321;BME280;38732;49.556;6.286;2022-12-07T14:50:35;99569.38;;;9.31;73.31
51321;BME280;38732;49.556;6.286;2022-12-07T14:53:13;99575.38;;;9.30;72.57
51321;BME280;38732;49.556;6.286;2022-12-07T14:55:42;99572.84;;;9.38;71.95
51321;BME280;38732;49.556;6.286;2022-12-07T14:58:19;99569.44;;;9.40;70.96
51321;BME280;38732;49.556;6.286;2022-12-07T15:00:47;99567.66;;;9.33;72.03
51321;BME280;38732;49.556;6.286;2022-12-07T15:03:15;99568.53;;;9.35;73.55
51321;BME280;38732;49.556;6.286;2022-12-07T15:05:44;99567.69;;;9.35;72.01
51321;BME280;38732;49.556;6.286;2022-12-07T15:08:12;99570.22;;;9.30;73.08
51321;BME280;38732;49.556;6.286;2022-12-07T15:10:41;99571.09;;;9.32;73.50
51321;BME280;38732;49.556;6.286;2022-12-07T15:13:09;99563.25;;;9.15;73.76
51321;BME280;38732;49.556;6.286;2022-12-07T15:15:37;99562.44;;;9.19;73.05
51321;BME280;38732;49.556;6.286;2022-12-07T15:18:06;99561.56;;;9.23;72.77
51321;BME280;38732;49.556;6.286;2022-12-07T15:20:34;99559.22;;;8.46;75.57
51321;BME280;38732;49.556;6.286;2022-12-07T15:23:02;99567.06;;;8.58;75.68